YBCS Airport Information

Runway Information
Runway 12 Length 3035 ft width 60 ft
Elevation 9 ft Threshold 0 ft Heading 126
Runway 30 Length 3035 ft Width 60 ft
Elevation 6 ft Threshold 0 ft Heading 306
Runway 15 Length 10489 ft width 148 ft
Elevation 9 ft Threshold 0 ft Heading 156
Runway 33 Length 10489 ft Width 148 ft
Elevation 7 ft Threshold 0 ft Heading 336
Airport Frequencies
Type A/D Name APP/DEP Frequency 118.4 MHZ
Type ATIS Name ATIS Frequency 113 MHZ
Type CLD Name CLNC DEL Frequency 121.7 MHZ
Type GND Name GND Frequency 121.7 MHZ
Type TWR Name TWR Frequency 124.9 MHZ
Airport Navaids
Type VOR-DME Name Cairns Frequency 113000 KHZ
Type NDB Name Cairns Frequency 364 KHZ
Airport Weather Information & NOTAM
ADDS - METARS form results

(1428 UTC 28 January 2020)
Data provider http://aviationweather.gov/metar/data/
 
METAR text: YBCS 281412Z AUTO 00000KT 5000 +RA SCT006 BKN017 BKN031 25/24 Q1008 FM1412 08007KT 7000 -SHRA SCT005 BKN012 OVC020 TEMPO 1412/1500 VRB20G35KT 0500 TSRA BKN005 SCT020CB INTER 1412/1712 1000 SHRA OVC005
Conditions at: YBCS (CAIRNS AIRPORT , AU) observed 1412 UTC 28 January 2020
Temperature: 25.0°C (77°F)
Dewpoint: 24.0°C (75°F) [RH = 94%]
Pressure (altimeter): 29.76 inches Hg (1008.0 mb)
Winds: calm
Visibility: 3 miles ( 5 km)
Ceiling: 1700 feet AGL
Clouds: scattered clouds at 600 feet AGL
broken clouds at 1700 feet AGL
broken clouds at 3100 feet AGL
Weather: +RA  (heavy rain)

METAR text: YBCS 281404Z AUTO 24001KT 2300 +RA SCT005 SCT025 BKN038 25/24 Q1007 FM1404 08007KT 7000 -SHRA SCT005 BKN012 OVC020 TEMPO 1404/1500 VRB20G35KT 0500 TSRA BKN005 SCT020CB INTER 1404/1704 1000 SHRA OVC005
Conditions at: YBCS (CAIRNS AIRPORT , AU) observed 1404 UTC 28 January 2020
Temperature: 25.0°C (77°F)
Dewpoint: 24.0°C (75°F) [RH = 94%]
Pressure (altimeter): 29.73 inches Hg (1007.0 mb)
Winds: from the WSW (240 degrees) at 1 MPH (1 knots; 0.5 m/s)
Visibility: 1.43 miles (2.30 km)
Ceiling: 3800 feet AGL
Clouds: scattered clouds at 500 feet AGL
scattered clouds at 2500 feet AGL
broken clouds at 3800 feet AGL
Weather: +RA  (heavy rain)

METAR text: YBCS 281400Z AUTO 26002KT 1800 +RA SCT006 SCT017 BKN036 25/24 Q1007 FM1400 08007KT 7000 -SHRA SCT005 BKN012 OVC020 TEMPO 1400/1500 VRB20G35KT 0500 TSRA BKN005 SCT020CB TEMPO 1500/1700 1000 SHRA OVC005
Conditions at: YBCS (CAIRNS AIRPORT , AU) observed 1400 UTC 28 January 2020
Temperature: 25.0°C (77°F)
Dewpoint: 24.0°C (75°F) [RH = 94%]
Pressure (altimeter): 29.73 inches Hg (1007.0 mb)
Winds: from the W (260 degrees) at 2 MPH (2 knots; 1.0 m/s)
Visibility: 1.12 miles (1.80 km)
Ceiling: 3600 feet AGL
Clouds: scattered clouds at 600 feet AGL
scattered clouds at 1700 feet AGL
broken clouds at 3600 feet AGL
Weather: +RA  (heavy rain)

METAR text: YBCS 281330Z AUTO 01006KT 0800 +RA BKN012 BKN030 BKN040 25/24 Q1008 OVC020 TEMPO 1330/1500 VRB20G35KT 0500 TSRA BKN005 SCT020CB TEMPO 1500/1630 1000 SHRA OVC005
Conditions at: YBCS (CAIRNS AIRPORT , AU) observed 1330 UTC 28 January 2020
Temperature: 25.0°C (77°F)
Dewpoint: 24.0°C (75°F) [RH = 94%]
Pressure (altimeter): 29.76 inches Hg (1008.0 mb)
Winds: from the N (10 degrees) at 7 MPH (6 knots; 3.1 m/s)
Visibility: 0.50 miles (0.80 km)
Ceiling: 1200 feet AGL
Clouds: broken clouds at 1200 feet AGL
broken clouds at 3000 feet AGL
broken clouds at 4000 feet AGL
overcast cloud deck at 2000 feet AGL
Weather: +RA  (heavy rain)

Forecast for: AMD
Text: TAF AMD YBCS 281410Z 2815/2912 08007KT 7000 -SHRA SCT005 BKN012 OVC020
Forecast period: 1500 UTC 28 January 2020 to 0000 UTC 29 January 2020
Forecast type: FROM: standard forecast or significant change
Winds: from the E (80 degrees) at 8 MPH (7 knots; 3.6 m/s)
Visibility: 4 miles (7 km)
Ceiling: 1200 feet AGL
Clouds: scattered clouds at 500 feet AGL
broken clouds at 1200 feet AGL
overcast cloud deck at 2000 feet AGL
Weather: -SHRA  (light rain showers)
Text: FM290000 09008KT 9999 -SHRA SCT015 BKN025 BKN040
Forecast period: 0000 to 1000 UTC 29 January 2020
Forecast type: FROM: standard forecast or significant change
Winds: from the E (90 degrees) at 9 MPH (8 knots; 4.1 m/s)
Visibility: 6 or more miles 10+ km)
Ceiling: 2500 feet AGL
Clouds: scattered clouds at 1500 feet AGL
broken clouds at 2500 feet AGL
broken clouds at 4000 feet AGL
Weather: -SHRA  (light rain showers)
Text: FM291000 14005KT 9999 -SHRA BKN018 BKN040 INTER 2815/2900 1000 SHRA OVC005 INTER 2900/2912 2000 SHRA BKN005
Forecast period: 1000 to 1200 UTC 29 January 2020
Forecast type: FROM: standard forecast or significant change
Winds: from the SE (140 degrees) at 6 MPH (5 knots; 2.6 m/s)
Visibility: 6 or more miles 10+ km)
Ceiling: 1800 feet AGL
Clouds: broken clouds at 1800 feet AGL
broken clouds at 4000 feet AGL
Weather: -SHRA  (light rain showers)
Text: PROB30
Forecast period: 1500 UTC 28 January 2020 to 0000 UTC 29 January 2020
Forecast type: TEMPORARY: The following changes expected for less than half the time period
Visibility: 0.62 miles (1.00 km)
Ceiling: 500 feet AGL
Clouds: overcast cloud deck at 500 feet AGL
Weather: SHRA  (rain showers)
Text: TEMPO 2815/2912 VRB20G35KT 0500 TSRA BKN005 SCT020CB
Forecast period: 0000 to 1200 UTC 29 January 2020
Forecast type: TEMPORARY: The following changes expected for less than half the time period
Visibility: 1.24 miles (2.00 km)
Ceiling: 500 feet AGL
Clouds: broken clouds at 500 feet AGL
Weather: SHRA  (rain showers)
Text:
Forecast period: 1500 UTC 28 January 2020 to 1200 UTC 29 January 2020
Forecast type: TEMPORARY: The following changes expected for less than half the time period
Winds: variable direction winds at 23 MPH (20 knots; 10.3 m/s)
gusting to 40 MPH (35 knots; 18.0 m/s)
Visibility: 0.31 miles (0.50 km)
Ceiling: 500 feet AGL
Clouds: broken clouds at 500 feet AGL
scattered clouds at 2000 feet AGL
Weather: TSRA  (rain associated with thunderstorm(s))

Contacts Infinite Flight LiveFlight Admin Panel 

© Qantas Virtual Group